Time;durP1;ratioP1;P1;durP2;ratioP2;P2;SDS_P1;SDS_P2;PMS_P1;PMS_P2;Temp;Humidity;BMP_temperature;BMP_pressure;BME280_temperature;BME280_humidity;BME280_pressure;Samples;Min_cycle;Max_cycle;Signal;HPM_P1;HPM_P2
2022/04/14 00:01:26;;;;;;;15.30;8.68;;;10.40;99.90;;;;;;5072423;28;20532;-71
2022/04/14 00:03:52;;;;;;;12.15;8.50;;;10.30;99.90;;;;;;5055388;28;20124;-71
2022/04/14 00:06:18;;;;;;;12.45;8.50;;;10.30;99.90;;;;;;5071937;28;20051;-70
2022/04/14 00:08:44;;;;;;;14.00;9.13;;;10.30;99.90;;;;;;5071977;28;20053;-70
2022/04/14 00:11:09;;;;;;;18.60;8.90;;;10.30;99.90;;;;;;5073380;28;20056;-70
2022/04/14 00:13:35;;;;;;;14.45;9.15;;;10.30;99.90;;;;;;5063988;28;20036;-70
2022/04/14 00:16:01;;;;;;;20.20;10.02;;;10.30;99.90;;;;;;5049760;28;20037;-71
2022/04/14 00:18:27;;;;;;;14.02;8.88;;;10.20;99.90;;;;;;5053309;28;20131;-70
2022/04/14 00:20:52;;;;;;;17.88;10.23;;;10.20;99.90;;;;;;5051888;28;20048;-71
2022/04/14 00:23:18;;;;;;;15.20;8.38;;;10.20;99.90;;;;;;5052983;28;20056;-72
2022/04/14 00:25:44;;;;;;;14.00;8.55;;;10.20;99.90;;;;;;5051889;28;20064;-71
2022/04/14 00:28:10;;;;;;;14.57;9.05;;;10.20;99.90;;;;;;5051758;28;20044;-70
2022/04/14 00:30:36;;;;;;;17.70;9.73;;;10.10;99.90;;;;;;5051671;28;20040;-71
2022/04/14 00:33:01;;;;;;;17.10;9.77;;;10.10;99.90;;;;;;5051874;28;20064;-70
2022/04/14 00:35:27;;;;;;;16.17;9.45;;;10.10;99.90;;;;;;5053005;28;20041;-70
2022/04/14 00:37:53;;;;;;;14.30;9.88;;;10.00;99.90;;;;;;5051757;28;20060;-70
2022/04/14 00:40:19;;;;;;;17.92;10.75;;;10.00;99.90;;;;;;5035139;28;20080;-70
2022/04/14 00:42:45;;;;;;;17.20;10.63;;;10.00;99.90;;;;;;5052912;28;20066;-71
2022/04/14 00:45:10;;;;;;;16.75;11.52;;;9.90;99.90;;;;;;5052715;28;20037;-70
2022/04/14 00:47:38;;;;;;;17.60;11.32;;;9.90;99.90;;;;;;5049321;28;20045;-70
2022/04/14 00:50:04;;;;;;;19.35;12.80;;;9.90;99.90;;;;;;5052831;28;20536;-71
2022/04/14 00:52:30;;;;;;;17.52;11.40;;;9.80;99.90;;;;;;5052806;28;20134;-71
2022/04/14 00:54:56;;;;;;;18.63;12.65;;;9.80;99.90;;;;;;5052799;28;20065;-71
2022/04/14 00:57:22;;;;;;;16.48;11.40;;;9.80;99.90;;;;;;5052642;28;20045;-70
2022/04/14 00:59:48;;;;;;;18.52;13.13;;;9.70;99.90;;;;;;5052659;28;20033;-71
2022/04/14 01:02:14;;;;;;;20.30;13.30;;;9.70;99.90;;;;;;5052609;28;20044;-71
2022/04/14 01:04:41;;;;;;;24.45;14.23;;;9.60;99.90;;;;;;5052741;28;20041;-71
2022/04/14 01:07:08;;;;;;;23.67;13.95;;;9.60;99.90;;;;;;5051473;28;20052;-71
2022/04/14 01:09:34;;;;;;;19.85;14.07;;;9.60;99.90;;;;;;5052964;28;20041;-71
2022/04/14 01:12:01;;;;;;;21.23;13.57;;;9.60;99.90;;;;;;5054828;28;20080;-71
2022/04/14 01:14:29;;;;;;;23.45;15.73;;;9.50;99.90;;;;;;5055375;28;20037;-71
2022/04/14 01:17:00;;;;;;;18.60;13.15;;;9.50;99.90;;;;;;5053292;28;20045;-71
2022/04/14 01:19:26;;;;;;;21.02;14.18;;;9.40;99.90;;;;;;5038920;28;20465;-71
2022/04/14 01:22:25;;;;;;;23.67;15.40;;;9.40;99.90;;;;;;5038528;28;20048;-71
2022/04/14 01:24:56;;;;;;;20.52;14.98;;;9.40;99.90;;;;;;5055263;28;20048;-71
2022/04/14 01:27:23;;;;;;;20.08;14.13;;;9.40;99.90;;;;;;5056302;28;20124;-71
2022/04/14 01:29:51;;;;;;;18.83;14.07;;;9.40;99.90;;;;;;5056606;28;20029;-71
2022/04/14 01:32:19;;;;;;;22.83;15.07;;;9.40;99.90;;;;;;5056409;28;20039;-71
2022/04/14 01:34:45;;;;;;;24.15;17.60;;;9.40;99.90;;;;;;5038456;28;20040;-71
2022/04/14 01:37:11;;;;;;;21.80;16.35;;;9.40;99.90;;;;;;5038466;28;20099;-71
2022/04/14 01:39:38;;;;;;;28.05;18.10;;;9.40;99.90;;;;;;5038419;28;20047;-71
2022/04/14 01:42:04;;;;;;;25.25;17.85;;;9.40;99.90;;;;;;5054944;28;20041;-71
2022/04/14 01:44:31;;;;;;;25.23;18.65;;;9.30;99.90;;;;;;5055213;28;20045;-71
2022/04/14 01:46:56;;;;;;;23.52;16.35;;;9.40;99.90;;;;;;5053804;28;20123;-71
2022/04/14 01:49:22;;;;;;;21.27;15.88;;;9.40;99.90;;;;;;5038120;28;20131;-70
2022/04/14 01:51:48;;;;;;;23.15;16.13;;;9.30;99.90;;;;;;5054579;28;20049;-71
2022/04/14 01:54:14;;;;;;;22.67;16.55;;;9.30;99.90;;;;;;5054966;28;20052;-71
2022/04/14 01:56:41;;;;;;;22.55;17.25;;;9.30;99.90;;;;;;5054631;28;20037;-71
2022/04/14 01:59:07;;;;;;;25.38;17.67;;;9.20;99.90;;;;;;5054754;28;20413;-71
2022/04/14 02:01:33;;;;;;;28.02;19.23;;;9.20;99.90;;;;;;5054466;28;20043;-71
2022/04/14 02:03:59;;;;;;;25.02;18.45;;;9.20;99.90;;;;;;5054697;28;20116;-71
2022/04/14 02:06:25;;;;;;;37.47;22.50;;;9.20;99.90;;;;;;5055604;28;20041;-71
2022/04/14 02:08:51;;;;;;;27.17;18.40;;;9.20;99.90;;;;;;5037753;28;20049;-71
2022/04/14 02:11:17;;;;;;;27.58;18.20;;;9.20;99.90;;;;;;5038018;28;20043;-71
2022/04/14 02:13:45;;;;;;;33.15;18.85;;;9.00;99.90;;;;;;5046821;28;20405;-71
2022/04/14 02:16:11;;;;;;;20.83;15.43;;;8.90;99.90;;;;;;5072001;28;20044;-71
2022/04/14 02:18:36;;;;;;;27.25;17.02;;;8.80;99.90;;;;;;5075439;28;20040;-71
2022/04/14 02:21:02;;;;;;;24.30;16.42;;;8.70;99.90;;;;;;5074070;28;20036;-71
2022/04/14 02:23:28;;;;;;;28.23;19.88;;;8.60;99.90;;;;;;5057449;28;20070;-71
2022/04/14 02:25:54;;;;;;;31.67;20.10;;;8.60;99.90;;;;;;5074411;28;20040;-71
2022/04/14 02:28:20;;;;;;;26.73;20.33;;;8.60;99.90;;;;;;5073911;28;20507;-71
2022/04/14 02:30:46;;;;;;;31.00;21.00;;;8.70;99.90;;;;;;5057380;28;20044;-71
2022/04/14 02:33:12;;;;;;;40.97;24.13;;;8.60;99.90;;;;;;5057172;28;20040;-71
2022/04/14 02:35:38;;;;;;;34.15;23.45;;;8.60;99.90;;;;;;5073896;28;20090;-71
2022/04/14 02:38:04;;;;;;;36.28;21.58;;;8.60;99.90;;;;;;5073789;28;20139;-71
2022/04/14 02:40:30;;;;;;;28.92;20.40;;;8.60;99.90;;;;;;5071070;28;20052;-71
2022/04/14 02:42:58;;;;;;;29.98;20.10;;;8.50;99.90;;;;;;5074900;28;20127;-71
2022/04/14 02:45:25;;;;;;;41.60;23.98;;;8.40;99.90;;;;;;5056913;28;20059;-71
2022/04/14 02:47:52;;;;;;;36.35;21.63;;;8.20;99.90;;;;;;5072621;28;20094;-71
2022/04/14 02:50:19;;;;;;;39.60;23.63;;;8.20;99.90;;;;;;5074935;28;20036;-71
2022/04/14 02:52:45;;;;;;;28.33;19.40;;;8.20;99.90;;;;;;5057096;28;20033;-71
2022/04/14 02:55:11;;;;;;;36.05;24.40;;;8.10;99.90;;;;;;5073512;28;20044;-71
2022/04/14 02:57:37;;;;;;;47.90;28.13;;;8.10;99.90;;;;;;5073454;28;20047;-71
2022/04/14 03:00:09;;;;;;;46.75;29.55;;;8.10;99.90;;;;;;5074726;28;20036;-71
2022/04/14 03:02:36;;;;;;;52.22;30.48;;;8.10;99.90;;;;;;5074319;28;20068;-71
2022/04/14 03:05:02;;;;;;;45.97;28.13;;;8.10;99.90;;;;;;5056651;28;20047;-71
2022/04/14 03:07:28;;;;;;;42.58;27.88;;;8.10;99.90;;;;;;5073432;28;20041;-71
2022/04/14 03:09:55;;;;;;;44.90;27.25;;;8.10;99.90;;;;;;5073274;28;20056;-71
2022/04/14 03:12:21;;;;;;;41.63;27.20;;;8.10;99.90;;;;;;5074495;28;20131;-71
2022/04/14 03:14:47;;;;;;;48.67;30.58;;;8.10;99.90;;;;;;5055294;28;20060;-71
2022/04/14 03:17:13;;;;;;;47.40;28.55;;;8.20;99.90;;;;;;5051023;28;20044;-71
2022/04/14 03:19:39;;;;;;;49.50;31.33;;;8.20;99.90;;;;;;5053006;28;20355;-71
2022/04/14 03:22:05;;;;;;;54.22;31.73;;;8.30;99.90;;;;;;5052690;28;20053;-71
2022/04/14 03:24:31;;;;;;;77.47;39.03;;;8.30;99.90;;;;;;5053047;28;20095;-71
2022/04/14 03:26:57;;;;;;;62.70;36.42;;;8.30;99.90;;;;;;5054379;28;20032;-71
2022/04/14 03:29:22;;;;;;;52.80;33.03;;;8.30;99.90;;;;;;5052800;28;20379;-72
2022/04/14 03:31:48;;;;;;;70.80;37.00;;;8.30;99.90;;;;;;5053460;28;20377;-71
2022/04/14 03:34:14;;;;;;;74.05;34.95;;;8.20;99.90;;;;;;5054070;28;20044;-72
2022/04/14 03:36:40;;;;;;;89.90;39.95;;;8.20;99.90;;;;;;5052800;28;20048;-71
2022/04/14 03:39:06;;;;;;;53.63;32.30;;;8.10;99.90;;;;;;5052639;28;20041;-71
2022/04/14 03:41:31;;;;;;;47.20;30.33;;;8.00;99.90;;;;;;5054008;28;20088;-72
2022/04/14 03:43:57;;;;;;;52.10;30.67;;;7.90;99.90;;;;;;5052469;28;20543;-72
2022/04/14 03:46:23;;;;;;;182.18;54.67;;;8.00;99.90;;;;;;5050591;28;20048;-72
2022/04/14 03:48:49;;;;;;;44.17;25.15;;;7.90;99.90;;;;;;5064291;28;20036;-72
2022/04/14 03:51:16;;;;;;;317.92;53.22;;;7.80;99.90;;;;;;5073877;28;20032;-72
2022/04/14 03:53:42;;;;;;;44.92;28.55;;;7.80;99.90;;;;;;5072228;28;20051;-72
2022/04/14 03:56:08;;;;;;;59.67;34.70;;;7.70;99.90;;;;;;5073830;28;20036;-73
2022/04/14 03:58:34;;;;;;;43.22;28.52;;;7.70;99.90;;;;;;5073438;28;20185;-72
2022/04/14 04:01:00;;;;;;;73.65;38.40;;;7.70;99.90;;;;;;5073573;28;20045;-72
2022/04/14 04:03:26;;;;;;;120.65;47.58;;;7.70;99.90;;;;;;5073290;28;20485;-72
2022/04/14 04:05:52;;;;;;;256.50;49.50;;;7.70;99.90;;;;;;5072192;28;20044;-73
2022/04/14 04:08:18;;;;;;;312.67;52.95;;;7.70;99.90;;;;;;5072129;28;20078;-72
2022/04/14 04:10:45;;;;;;;68.63;33.28;;;7.70;99.90;;;;;;5072032;28;20051;-72
2022/04/14 04:13:11;;;;;;;87.32;39.30;;;7.50;99.90;;;;;;5067106;28;20044;-72
2022/04/14 04:15:37;;;;;;;79.13;40.53;;;7.50;99.90;;;;;;5052210;28;20421;-72
2022/04/14 04:18:04;;;;;;;84.45;41.88;;;7.50;99.90;;;;;;5049925;28;20128;-72
2022/04/14 04:20:31;;;;;;;95.70;44.05;;;7.60;99.90;;;;;;5051958;28;20053;-72
2022/04/14 04:22:57;;;;;;;111.63;48.08;;;7.50;99.90;;;;;;5051747;28;20102;-73
2022/04/14 04:25:23;;;;;;;78.22;40.42;;;7.60;99.90;;;;;;5053320;28;20064;-72
2022/04/14 04:27:49;;;;;;;92.25;45.42;;;7.60;99.90;;;;;;5053066;28;20393;-73
2022/04/14 04:30:15;;;;;;;112.47;49.90;;;7.50;99.90;;;;;;5053116;28;20523;-72
2022/04/14 04:32:41;;;;;;;184.93;57.75;;;7.50;99.90;;;;;;5051781;28;20029;-73
2022/04/14 04:35:08;;;;;;;66.70;36.28;;;7.50;99.90;;;;;;5051601;28;20037;-73
2022/04/14 04:37:34;;;;;;;82.22;38.80;;;7.50;99.90;;;;;;5053134;28;20045;-73
2022/04/14 04:40:00;;;;;;;79.78;42.55;;;7.40;99.90;;;;;;5052882;28;20041;-73
2022/04/14 04:42:26;;;;;;;70.10;39.55;;;7.40;99.90;;;;;;5051657;28;20052;-73
2022/04/14 04:44:52;;;;;;;80.25;42.33;;;7.40;99.90;;;;;;5051593;28;20052;-73
2022/04/14 04:47:20;;;;;;;65.93;36.10;;;7.50;99.90;;;;;;5050418;28;20063;-73
2022/04/14 04:49:47;;;;;;;76.88;41.40;;;7.50;99.90;;;;;;5052932;28;20041;-73
2022/04/14 04:52:13;;;;;;;201.38;60.40;;;7.50;99.90;;;;;;5051733;28;20037;-73
2022/04/14 04:54:39;;;;;;;124.25;49.80;;;7.60;99.90;;;;;;5052691;28;20556;-73
2022/04/14 04:57:05;;;;;;;129.50;51.83;;;7.50;99.90;;;;;;5051749;28;20124;-73
2022/04/14 04:59:31;;;;;;;181.15;50.83;;;7.50;99.90;;;;;;5052508;28;20033;-73
2022/04/14 05:01:57;;;;;;;624.03;89.00;;;7.50;99.90;;;;;;5034607;28;20060;-73
2022/04/14 05:04:22;;;;;;;730.58;100.15;;;7.50;99.90;;;;;;5034980;28;20045;-74
2022/04/14 05:06:48;;;;;;;463.88;61.58;;;7.40;99.90;;;;;;5052618;28;20374;-74
2022/04/14 05:09:16;;;;;;;751.53;92.00;;;7.40;99.90;;;;;;5052511;28;20049;-74
2022/04/14 05:11:42;;;;;;;433.88;84.15;;;7.40;99.90;;;;;;5051592;28;20458;-74
2022/04/14 05:14:08;;;;;;;64.90;36.50;;;7.40;99.90;;;;;;5065126;28;20075;-73
2022/04/14 05:16:34;;;;;;;84.60;40.97;;;7.40;99.90;;;;;;5070189;28;20071;-74
2022/04/14 05:19:00;;;;;;;67.45;38.92;;;7.40;99.90;;;;;;5071281;28;20076;-74
2022/04/14 05:21:26;;;;;;;75.03;40.30;;;7.40;99.90;;;;;;5071121;28;20047;-74
2022/04/14 05:23:51;;;;;;;72.15;41.92;;;7.50;99.90;;;;;;5071275;28;20102;-74
2022/04/14 05:26:18;;;;;;;113.07;53.22;;;7.60;99.90;;;;;;5071339;28;20037;-74
2022/04/14 05:28:43;;;;;;;97.03;49.70;;;7.70;99.90;;;;;;5071066;28;20386;-74
2022/04/14 05:31:09;;;;;;;203.77;67.88;;;7.80;99.90;;;;;;5072381;28;20050;-74
2022/04/14 05:33:35;;;;;;;126.90;54.35;;;7.90;99.90;;;;;;5072534;28;20036;-74
2022/04/14 05:36:01;;;;;;;102.72;48.42;;;8.00;99.90;;;;;;5072314;28;20041;-74
2022/04/14 05:38:27;;;;;;;136.43;58.50;;;8.10;99.90;;;;;;5070933;28;20056;-74
2022/04/14 05:40:54;;;;;;;93.07;46.45;;;8.20;99.90;;;;;;5071280;28;20079;-74
2022/04/14 05:43:25;;;;;;;99.25;50.17;;;8.40;99.90;;;;;;5071055;28;20076;-74
2022/04/14 05:45:51;;;;;;;109.15;53.22;;;8.60;99.90;;;;;;5069420;28;20048;-74
2022/04/14 05:48:18;;;;;;;86.78;48.10;;;8.70;99.90;;;;;;5072009;28;20045;-73
2022/04/14 05:50:46;;;;;;;76.85;44.78;;;8.90;99.90;;;;;;5080562;28;20096;-73
2022/04/14 05:53:12;;;;;;;89.05;48.58;;;9.00;99.90;;;;;;5072384;28;20057;-73
2022/04/14 05:55:39;;;;;;;78.85;45.90;;;9.20;99.90;;;;;;5072376;28;20055;-73
2022/04/14 05:58:06;;;;;;;83.63;46.60;;;9.40;99.90;;;;;;5075523;28;20036;-74
2022/04/14 06:00:33;;;;;;;80.60;43.53;;;9.70;99.90;;;;;;5074521;28;20044;-73
2022/04/14 06:02:59;;;;;;;69.85;39.95;;;10.00;99.90;;;;;;5071739;28;20132;-73
2022/04/14 06:05:32;;;;;;;57.42;36.47;;;10.20;99.90;;;;;;5075679;28;20055;-73
2022/04/14 06:07:59;;;;;;;54.65;34.72;;;10.50;99.90;;;;;;5074535;28;20097;-73
2022/04/14 06:10:26;;;;;;;41.53;29.58;;;10.60;99.90;;;;;;5074596;28;20036;-73
2022/04/14 06:12:55;;;;;;;41.25;29.67;;;10.80;99.90;;;;;;5073136;28;20046;-73
2022/04/14 06:15:21;;;;;;;44.85;29.92;;;11.00;99.90;;;;;;5054307;28;20041;-72
2022/04/14 06:17:47;;;;;;;46.17;30.42;;;11.00;99.90;;;;;;5053481;28;20094;-72
2022/04/14 06:20:13;;;;;;;49.22;32.03;;;11.00;99.90;;;;;;5054448;28;20040;-72
2022/04/14 06:22:43;;;;;;;44.92;30.33;;;10.90;99.90;;;;;;5054001;28;20060;-72
2022/04/14 06:25:16;;;;;;;44.08;30.40;;;11.00;99.90;;;;;;5054072;28;20056;-73
2022/04/14 06:27:43;;;;;;;41.70;28.23;;;11.10;99.90;;;;;;5055270;28;20068;-73
2022/04/14 06:30:11;;;;;;;39.97;27.83;;;11.40;99.90;;;;;;5037288;28;20123;-73
2022/04/14 06:32:37;;;;;;;36.90;26.45;;;11.70;99.90;;;;;;5056299;28;20123;-74
2022/04/14 06:35:06;;;;;;;39.38;26.88;;;12.10;99.90;;;;;;5073860;28;20105;-72
2022/04/14 06:37:33;;;;;;;43.65;27.98;;;12.30;99.90;;;;;;5073788;28;20472;-73
2022/04/14 06:39:58;;;;;;;41.08;28.00;;;12.20;99.90;;;;;;5074963;28;20500;-73
2022/04/14 06:42:24;;;;;;;40.33;27.52;;;12.20;99.90;;;;;;5073793;28;20051;-73
2022/04/14 06:44:51;;;;;;;36.25;27.40;;;12.20;99.90;;;;;;5076563;28;20040;-73
2022/04/14 06:47:16;;;;;;;36.97;26.65;;;12.30;99.90;;;;;;5071789;28;20131;-73
2022/04/14 06:49:42;;;;;;;37.58;26.98;;;12.50;99.90;;;;;;5073722;28;20115;-72
2022/04/14 06:52:08;;;;;;;35.03;25.85;;;12.60;99.90;;;;;;5074817;28;20440;-72
2022/04/14 06:54:34;;;;;;;36.05;26.13;;;12.70;99.90;;;;;;5073837;28;20040;-73
2022/04/14 06:57:00;;;;;;;35.33;26.60;;;12.60;99.90;;;;;;5074579;28;20496;-73
2022/04/14 06:59:27;;;;;;;37.47;25.95;;;12.70;99.90;;;;;;5073520;28;20123;-72
2022/04/14 07:01:54;;;;;;;38.63;26.65;;;12.70;99.90;;;;;;5074951;28;20040;-73
2022/04/14 07:04:19;;;;;;;35.03;25.45;;;12.60;99.90;;;;;;5064310;28;20084;-73
2022/04/14 07:06:46;;;;;;;33.83;25.33;;;12.60;99.90;;;;;;5055699;28;20129;-75
2022/04/14 07:09:12;;;;;;;37.30;25.48;;;12.70;99.90;;;;;;5055119;28;20429;-74
2022/04/14 07:11:38;;;;;;;35.38;24.50;;;12.90;99.90;;;;;;5073127;28;20044;-76
2022/04/14 07:14:04;;;;;;;38.45;25.20;;;13.00;99.90;;;;;;5073955;28;20075;-75
2022/04/14 07:16:30;;;;;;;36.08;25.25;;;13.00;99.90;;;;;;5070904;28;20463;-75
2022/04/14 07:18:56;;;;;;;37.42;24.95;;;13.10;99.90;;;;;;5056541;28;20040;-75
2022/04/14 07:21:21;;;;;;;35.45;23.60;;;13.30;99.90;;;;;;5072821;28;20424;-77
2022/04/14 07:23:47;;;;;;;27.33;21.45;;;13.50;99.90;;;;;;5074165;28;20123;-76
2022/04/14 07:26:13;;;;;;;27.17;21.08;;;13.60;99.90;;;;;;5056401;28;20110;-74
2022/04/14 07:28:39;;;;;;;28.83;21.23;;;13.80;99.90;;;;;;5072956;28;20050;-75
2022/04/14 07:31:05;;;;;;;27.58;20.42;;;13.90;99.90;;;;;;5073114;28;20354;-75
2022/04/14 07:33:31;;;;;;;29.23;20.75;;;14.00;99.90;;;;;;5072866;28;20052;-75
2022/04/14 07:35:58;;;;;;;25.02;19.42;;;14.00;99.90;;;;;;5074038;28;20044;-74
2022/04/14 07:38:24;;;;;;;30.73;20.85;;;14.10;99.90;;;;;;5073890;28;20048;-75
2022/04/14 07:40:50;;;;;;;31.67;21.83;;;14.20;99.90;;;;;;5072955;28;20041;-75
2022/04/14 07:43:16;;;;;;;26.17;20.58;;;14.30;99.90;;;;;;5073856;28;20036;-74
2022/04/14 07:45:45;;;;;;;24.08;16.95;;;14.50;99.90;;;;;;5073896;28;20041;-76
2022/04/14 07:48:11;;;;;;;20.52;15.80;;;14.70;99.90;;;;;;5070377;28;20154;-74
2022/04/14 07:50:37;;;;;;;22.30;15.25;;;14.80;99.90;;;;;;5073732;28;20043;-75
2022/04/14 07:53:03;;;;;;;16.98;12.98;;;15.00;99.90;;;;;;5073743;28;20040;-76
2022/04/14 07:55:34;;;;;;;17.58;12.85;;;15.40;99.90;;;;;;5072346;28;20047;-75
2022/04/14 07:58:06;;;;;;;16.08;11.93;;;15.70;99.90;;;;;;5072656;28;20040;-76
2022/04/14 08:00:34;;;;;;;18.33;12.43;;;16.10;99.90;;;;;;5072224;28;20075;-76
2022/04/14 08:03:01;;;;;;;19.38;12.07;;;16.40;99.90;;;;;;5071475;28;20052;-76
2022/04/14 08:05:29;;;;;;;13.13;10.77;;;16.50;99.90;;;;;;5072063;28;20127;-76
2022/04/14 08:07:55;;;;;;;16.10;11.02;;;16.70;99.90;;;;;;5073573;28;20037;-75
2022/04/14 08:10:21;;;;;;;16.05;12.55;;;16.90;99.90;;;;;;5073299;28;20044;-77
2022/04/14 08:12:47;;;;;;;17.25;11.18;;;17.10;99.90;;;;;;5070520;28;20040;-78
2022/04/14 08:15:14;;;;;;;14.63;11.05;;;17.30;99.90;;;;;;5053480;28;20071;-74
2022/04/14 08:17:43;;;;;;;16.75;11.82;;;17.40;99.90;;;;;;5049810;28;20373;-74
2022/04/14 08:20:11;;;;;;;14.35;12.02;;;17.40;99.90;;;;;;5051952;28;20041;-74
2022/04/14 08:22:52;;;;;;;14.00;11.38;;;17.50;99.90;;;;;;5051694;28;20053;-74
2022/04/14 08:25:24;;;;;;;15.93;11.60;;;17.50;99.90;;;;;;5051657;28;20120;-78
2022/04/14 08:27:51;;;;;;;16.90;11.90;;;17.50;99.90;;;;;;5035600;28;20036;-77
2022/04/14 08:30:20;;;;;;;16.38;12.10;;;17.60;99.90;;;;;;5051879;28;20075;-78
2022/04/14 08:32:48;;;;;;;16.38;11.23;;;17.70;99.90;;;;;;5018980;28;20535;-77
2022/04/14 08:35:15;;;;;;;13.52;11.98;;;17.90;99.90;;;;;;5052152;28;20037;-77
2022/04/14 08:37:42;;;;;;;17.40;12.55;;;18.00;99.90;;;;;;5053192;28;20037;-76
2022/04/14 08:40:11;;;;;;;15.73;11.60;;;18.10;99.90;;;;;;5035178;28;20037;-76
2022/04/14 08:42:42;;;;;;;17.08;12.50;;;18.40;99.90;;;;;;5052881;28;20048;-78
2022/04/14 08:45:12;;;;;;;14.48;12.77;;;18.70;99.90;;;;;;5052861;28;20120;-75
2022/04/14 08:47:40;;;;;;;16.10;12.80;;;19.10;99.90;;;;;;5049155;28;20048;-77
2022/04/14 08:50:15;;;;;;;14.27;12.15;;;19.60;99.90;;;;;;5053081;28;20083;-76
2022/04/14 08:52:41;;;;;;;17.08;14.18;;;19.80;99.90;;;;;;5034950;28;20052;-76
2022/04/14 08:55:10;;;;;;;15.30;12.20;;;19.80;99.90;;;;;;5052805;28;20036;-75
2022/04/14 08:57:37;;;;;;;18.45;12.77;;;19.80;99.90;;;;;;5052578;28;20560;-75
2022/04/14 09:00:06;;;;;;;14.70;12.20;;;19.80;99.90;;;;;;5052694;28;20048;-75
2022/04/14 09:02:34;;;;;;;13.18;11.68;;;20.00;99.90;;;;;;5052618;28;20056;-75
2022/04/14 09:05:04;;;;;;;13.93;12.32;;;20.00;99.90;;;;;;5051476;28;20041;-75
2022/04/14 09:07:30;;;;;;;14.60;12.45;;;20.30;99.90;;;;;;5052499;28;20059;-75
2022/04/14 09:09:56;;;;;;;15.13;11.63;;;20.30;99.90;;;;;;5052613;28;20477;-75
2022/04/14 09:12:22;;;;;;;15.00;12.70;;;20.30;99.90;;;;;;5034899;28;20048;-74
2022/04/14 09:14:49;;;;;;;14.30;12.45;;;20.40;99.90;;;;;;5069756;28;20032;-73
2022/04/14 09:17:15;;;;;;;14.18;12.35;;;20.40;99.90;;;;;;5068990;28;20040;-72
2022/04/14 09:19:44;;;;;;;14.57;12.57;;;20.30;99.90;;;;;;5070411;28;20423;-71
2022/04/14 09:22:12;;;;;;;14.77;12.00;;;20.20;99.90;;;;;;5071233;28;20049;-72
2022/04/14 09:24:47;;;;;;;15.15;12.75;;;20.30;99.90;;;;;;5054649;28;20106;-71
2022/04/14 09:27:32;;;;;;;14.45;12.93;;;20.20;99.90;;;;;;5071411;28;20415;-71
2022/04/14 09:30:03;;;;;;;13.65;11.65;;;20.10;99.90;;;;;;5072972;28;20040;-71
2022/04/14 09:32:34;;;;;;;13.90;11.63;;;20.20;99.90;;;;;;5075172;28;20043;-72
2022/04/14 09:35:04;;;;;;;14.63;12.43;;;20.10;99.90;;;;;;5075046;28;20047;-71
2022/04/14 09:37:32;;;;;;;12.02;9.82;;;20.30;99.90;;;;;;5058364;28;20032;-72
2022/04/14 09:40:00;;;;;;;12.82;9.35;;;20.50;99.90;;;;;;5072248;28;20036;-72
2022/04/14 09:42:31;;;;;;;9.98;7.85;;;20.50;99.70;;;;;;5074965;28;20041;-72
2022/04/14 09:45:20;;;;;;;10.02;7.30;;;20.40;98.20;;;;;;5075011;28;20059;-71
2022/04/14 09:47:49;;;;;;;11.32;8.93;;;20.40;98.70;;;;;;5072808;28;20040;-72
2022/04/14 09:50:32;;;;;;;10.32;8.45;;;20.40;98.30;;;;;;5074775;28;20115;-71
2022/04/14 09:53:12;;;;;;;12.40;9.43;;;20.20;97.80;;;;;;5074969;28;20044;-71
2022/04/14 09:55:43;;;;;;;10.50;8.65;;;20.10;98.10;;;;;;5074754;28;20047;-71
2022/04/14 09:58:12;;;;;;;11.68;9.40;;;19.90;98.40;;;;;;5073907;28;20056;-71
2022/04/14 10:00:41;;;;;;;13.90;10.43;;;19.80;98.70;;;;;;5074563;28;20126;-73
2022/04/14 10:03:11;;;;;;;11.00;9.10;;;19.80;98.90;;;;;;5075963;28;20040;-72
2022/04/14 10:05:37;;;;;;;12.05;10.05;;;19.80;99.60;;;;;;5075691;28;20044;-73
2022/04/14 10:08:07;;;;;;;14.00;9.75;;;20.00;99.40;;;;;;5057904;28;20076;-72
2022/04/14 10:10:34;;;;;;;;;;;20.20;99.80;;;;;;5074812;28;20040;-72
2022/04/14 10:13:07;;;;;;;13.63;9.13;;;20.50;99.90;;;;;;5072507;28;19916;-72
2022/04/14 10:15:41;;;;;;;11.38;9.32;;;20.50;98.40;;;;;;5054541;28;20043;-71
2022/04/14 10:18:11;;;;;;;9.48;6.43;;;20.40;98.50;;;;;;5052195;28;20047;-71
2022/04/14 10:20:38;;;;;;;8.07;6.07;;;20.20;95.60;;;;;;5054589;28;20055;-71
2022/04/14 10:23:07;;;;;;;8.75;4.95;;;20.10;95.30;;;;;;5055167;28;20140;-71
2022/04/14 10:25:37;;;;;;;7.70;5.65;;;19.90;93.10;;;;;;5054246;28;20048;-71
2022/04/14 10:28:07;;;;;;;;;;;19.40;92.30;;;;;;5055955;28;20033;-71
2022/04/14 10:30:33;;;;;;;8.05;5.20;;;19.30;94.60;;;;;;5055624;28;19923;-73
2022/04/14 10:32:59;;;;;;;6.60;5.15;;;19.50;93.70;;;;;;5055430;28;20397;-73
2022/04/14 10:35:26;;;;;;;6.88;5.55;;;19.80;94.20;;;;;;5053956;28;20037;-74
2022/04/14 10:38:03;;;;;;;8.68;6.00;;;20.10;94.00;;;;;;5053818;28;20049;-72
2022/04/14 10:40:31;;;;;;;8.85;7.40;;;20.30;93.40;;;;;;5053965;28;20041;-71
2022/04/14 10:42:58;;;;;;;10.35;6.97;;;20.50;94.10;;;;;;5053660;28;20049;-72
2022/04/14 10:45:24;;;;;;;8.63;6.53;;;20.50;93.20;;;;;;5055005;28;20048;-72
2022/04/14 10:47:50;;;;;;;9.43;6.45;;;20.50;92.10;;;;;;5047895;28;20099;-73
2022/04/14 10:50:29;;;;;;;8.73;5.75;;;20.40;92.90;;;;;;5054813;28;20041;-72
2022/04/14 10:53:17;;;;;;;11.75;6.70;;;20.50;92.20;;;;;;5053831;28;20110;-71
2022/04/14 10:55:45;;;;;;;9.70;5.60;;;20.60;90.70;;;;;;5054924;28;20052;-72
2022/04/14 10:58:26;;;;;;;7.75;5.45;;;20.50;89.50;;;;;;5056028;28;20132;-73
2022/04/14 11:00:53;;;;;;;10.13;5.68;;;20.40;91.20;;;;;;5055610;28;20516;-72
2022/04/14 11:03:18;;;;;;;8.82;5.80;;;20.50;92.10;;;;;;5053817;28;20059;-71
2022/04/14 11:05:51;;;;;;;8.23;5.18;;;20.70;91.20;;;;;;5053442;28;20037;-72
2022/04/14 11:08:31;;;;;;;7.53;5.32;;;20.90;90.50;;;;;;5054567;28;20041;-71
2022/04/14 11:11:14;;;;;;;9.27;4.20;;;20.90;89.20;;;;;;5053269;28;20045;-75
2022/04/14 11:13:52;;;;;;;8.32;4.97;;;20.90;89.90;;;;;;5063130;28;20393;-73
2022/04/14 11:16:44;;;;;;;8.35;4.85;;;21.00;87.10;;;;;;5072431;28;20040;-72
2022/04/14 11:19:19;;;;;;;8.68;4.65;;;20.90;89.30;;;;;;5073375;28;20389;-73
2022/04/14 11:22:05;;;;;;;6.72;4.82;;;20.70;87.60;;;;;;5072950;28;20067;-73
2022/04/14 11:24:37;;;;;;;11.60;6.25;;;20.80;87.50;;;;;;5073068;28;20106;-82
2022/04/14 11:27:16;;;;;;;8.32;6.10;;;20.80;90.00;;;;;;5074465;28;20037;-72
2022/04/14 11:29:47;;;;;;;10.15;6.43;;;20.90;90.70;;;;;;5072807;28;20058;-72
2022/04/14 11:32:15;;;;;;;10.55;6.45;;;20.80;88.60;;;;;;5072988;28;20044;-73
2022/04/14 11:34:41;;;;;;;10.43;6.85;;;20.80;88.00;;;;;;5073125;28;20542;-73
2022/04/14 11:37:45;;;;;;;9.93;6.57;;;20.70;86.40;;;;;;5066981;28;20076;-72
2022/04/14 11:40:15;;;;;;;11.95;6.22;;;20.70;87.10;;;;;;5055573;28;20480;-72
2022/04/14 11:42:42;;;;;;;9.98;6.07;;;20.70;86.50;;;;;;5059116;28;20040;-72
2022/04/14 11:45:08;;;;;;;9.73;6.47;;;20.60;86.20;;;;;;5054689;28;20453;-71
2022/04/14 11:47:34;;;;;;;7.07;5.40;;;20.20;84.10;;;;;;5040615;28;20041;-72
2022/04/14 11:50:00;;;;;;;9.75;5.78;;;19.80;84.70;;;;;;5059735;28;20463;-74
2022/04/14 11:52:26;;;;;;;9.10;5.72;;;19.70;84.90;;;;;;5061317;28;20037;-72
2022/04/14 11:54:53;;;;;;;7.65;5.35;;;19.70;87.10;;;;;;5061462;28;20104;-72
2022/04/14 11:57:23;;;;;;;7.93;5.20;;;19.80;87.80;;;;;;5061018;28;20024;-72
2022/04/14 11:59:51;;;;;;;6.43;4.93;;;19.90;86.90;;;;;;5059662;28;20036;-72
2022/04/14 12:02:20;;;;;;;9.85;5.68;;;19.90;88.00;;;;;;5059061;28;20037;-71
2022/04/14 12:04:57;;;;;;;8.70;4.50;;;19.80;89.30;;;;;;5059270;28;20037;-71
2022/04/14 12:07:29;;;;;;;7.63;5.18;;;19.70;88.80;;;;;;5063227;28;20036;-70
2022/04/14 12:10:07;;;;;;;9.57;5.15;;;19.50;90.10;;;;;;5055229;28;20048;-76
2022/04/14 12:12:37;;;;;;;10.38;6.25;;;19.10;90.60;;;;;;5055022;28;20485;-67
2022/04/14 12:15:04;;;;;;;8.75;5.28;;;19.10;91.00;;;;;;5058001;28;20130;-68
2022/04/14 12:17:33;;;;;;;8.60;5.35;;;19.10;90.20;;;;;;5055869;28;20554;-69
2022/04/14 12:20:03;;;;;;;12.38;6.10;;;19.10;89.20;;;;;;5057223;28;20566;-68
2022/04/14 12:22:34;;;;;;;7.80;5.57;;;19.20;90.10;;;;;;5059854;28;20063;-69
2022/04/14 12:25:04;;;;;;;8.25;5.03;;;19.50;90.70;;;;;;5072103;28;20142;-69
2022/04/14 12:27:37;;;;;;;9.45;5.80;;;19.70;90.50;;;;;;5063359;28;20384;-68
2022/04/14 12:30:09;;;;;;;9.15;4.90;;;19.90;91.00;;;;;;5051548;28;20106;-67
2022/04/14 12:32:35;;;;;;;8.52;3.90;;;19.80;90.80;;;;;;5058764;28;20064;-65
2022/04/14 12:35:06;;;;;;;5.38;3.42;;;19.70;90.50;;;;;;5064475;28;20071;-66
2022/04/14 12:37:54;;;;;;;10.48;4.40;;;19.60;90.60;;;;;;5063966;28;20606;-66
2022/04/14 12:40:24;;;;;;;;;;;19.40;90.40;;;;;;5058130;28;20036;-65